Date,TemperatureHighF,TemperatureAvgF,TemperatureLowF,DewpointHighF,DewpointAvgF,DewpointLowF,HumidityHigh,HumidityAvg,HumidityLow,PressureMaxIn,PressureMinIn,WindSpeedMaxMPH,WindSpeedAvgMPH,GustSpeedMaxMPH,PrecipitationSumIn
2013-2-1,54,36,21,33,28,21,99,74,41,0.00,40.00,5,2,10,0.00
2013-2-2,47,34,23,33,28,22,98,79,56,0.00,40.00,3,1,6,0.00
2013-2-3,54,34,18,33,26,18,99,74,37,0.00,40.00,5,2,10,0.00
2013-2-4,59,37,20,28,23,18,95,63,25,0.00,40.00,4,2,12,0.00
2013-2-5,60,41,23,25,19,9,85,48,17,0.00,40.00,8,2,14,0.00
2013-2-6,52,34,19,28,18,14,88,54,22,0.00,40.00,5,2,12,0.00
2013-2-7,52,37,17,21,13,2,72,41,12,0.00,40.00,18,6,30,0.00
2013-2-8,37,32,26,25,19,15,75,57,44,0.00,40.00,12,8,24,0.00
2013-2-9,41,32,23,16,14,10,72,49,30,0.00,40.00,10,6,17,0.00
2013-2-10,44,33,26,22,15,11,70,50,30,0.00,40.00,11,5,20,0.00
2013-2-11,44,28,12,15,10,5,75,51,24,0.00,40.00,6,2,11,0.00
2013-2-12,50,31,16,18,13,8,72,50,26,0.00,40.00,4,2,9,0.00
2013-2-13,53,34,19,23,18,12,75,55,30,0.00,40.00,3,2,10,0.00
2013-2-14,53,37,20,27,22,15,81,57,34,0.00,40.00,8,3,14,0.00
2013-2-15,56,37,19,27,22,15,84,58,29,0.00,40.00,5,2,11,0.00
2013-2-16,58,39,21,24,19,15,87,51,19,0.00,40.00,5,1,10,0.00
2013-2-17,50,36,21,23,14,3,71,43,19,0.00,40.00,9,4,19,0.00
2013-2-18,53,32,15,17,11,4,65,43,22,0.00,40.00,6,2,10,0.00
2013-2-19,46,40,34,24,18,12,60,40,24,0.00,40.00,17,8,27,0.00
2013-2-20,45,36,24,20,13,6,64,40,20,0.00,40.00,12,7,22,0.00
2013-2-21,45,32,14,15,10,5,68,41,23,0.00,40.00,7,3,15,0.00
2013-2-22,51,37,21,22,16,10,69,45,27,0.00,40.00,7,3,13,0.00
2013-2-23,47,37,18,32,16,5,91,45,23,0.00,40.00,16,9,28,0.00
2013-2-24,42,28,11,15,10,6,79,50,24,0.00,40.00,5,2,10,0.00
2013-2-25,54,32,14,13,8,4,70,40,16,0.00,40.00,15,4,27,0.00
2013-2-26,43,30,20,13,6,2,57,37,20,0.00,40.00,6,3,12,0.00
2013-2-27,54,34,12,10,6,2,64,35,12,0.00,40.00,7,3,13,0.00
2013-2-28,61,38,23,24,12,7,51,36,21,0.00,40.00,4,2,9,0.00